createdAt,value
2022-11-28T00:01:24.656Z,3.50
2022-11-28T00:03:51.756Z,3.67
2022-11-28T00:06:19.122Z,3.27
2022-11-28T00:08:46.418Z,3.50
2022-11-28T00:11:15.741Z,3.60
2022-11-28T00:13:42.944Z,3.83
2022-11-28T00:16:16.156Z,3.27
2022-11-28T00:18:43.518Z,3.43
2022-11-28T00:21:12.694Z,3.30
2022-11-28T00:23:40.114Z,3.67
2022-11-28T00:26:14.037Z,3.77
2022-11-28T00:28:41.174Z,2.80
2022-11-28T00:31:13.872Z,3.80
2022-11-28T00:33:41.347Z,3.60
2022-11-28T00:36:08.528Z,3.50
2022-11-28T00:38:35.543Z,3.53
2022-11-28T00:41:05.472Z,3.50
2022-11-28T00:43:33.101Z,3.53
2022-11-28T00:46:00.058Z,3.50
2022-11-28T00:48:27.528Z,3.53
2022-11-28T00:50:55.566Z,3.93
2022-11-28T00:53:22.381Z,3.57
2022-11-28T00:55:49.136Z,3.87
2022-11-28T00:58:15.877Z,3.87
2022-11-28T01:00:42.720Z,3.80
2022-11-28T01:03:09.614Z,3.97
2022-11-28T01:05:43.713Z,3.50
2022-11-28T01:08:10.903Z,3.83
2022-11-28T01:10:42.504Z,3.30
2022-11-28T01:13:10.685Z,3.50
2022-11-28T01:15:40.910Z,3.60
2022-11-28T01:18:07.880Z,3.00
2022-11-28T01:20:34.974Z,3.70
2022-11-28T01:23:01.785Z,3.97
2022-11-28T01:25:28.652Z,3.57
2022-11-28T01:27:55.478Z,3.33
2022-11-28T01:30:22.216Z,3.30
2022-11-28T01:32:48.991Z,3.63
2022-11-28T01:35:15.858Z,3.60
2022-11-28T01:37:42.631Z,3.70
2022-11-28T01:40:11.751Z,4.27
2022-11-28T01:42:38.836Z,3.47
2022-11-28T01:45:13.460Z,3.63
2022-11-28T01:47:40.924Z,4.43
2022-11-28T01:50:08.476Z,4.07
2022-11-28T01:52:38.406Z,4.20
2022-11-28T01:55:06.263Z,3.93
2022-11-28T01:57:33.146Z,3.83
2022-11-28T02:00:03.186Z,4.07
2022-11-28T02:02:36.795Z,3.90
2022-11-28T02:05:04.269Z,4.20
2022-11-28T02:07:31.205Z,4.17
2022-11-28T02:09:58.099Z,4.10
2022-11-28T02:12:45.715Z,3.77
2022-11-28T02:15:27.523Z,3.90
2022-11-28T02:18:03.245Z,3.97
2022-11-28T02:21:08.014Z,4.03
2022-11-28T02:23:43.424Z,4.57
2022-11-28T02:26:15.995Z,4.37
2022-11-28T02:28:58.005Z,4.00
2022-11-28T02:31:46.063Z,4.70
2022-11-28T02:34:26.099Z,4.50
2022-11-28T02:37:06.376Z,4.70
2022-11-28T02:40:14.413Z,4.23
2022-11-28T02:43:14.130Z,4.20
2022-11-28T02:45:53.629Z,4.30
2022-11-28T02:48:44.185Z,4.73
2022-11-28T02:51:24.816Z,4.77
2022-11-28T02:53:53.280Z,4.53
2022-11-28T02:56:20.028Z,4.57
2022-11-28T02:58:47.139Z,4.20
2022-11-28T03:01:30.820Z,4.30
2022-11-28T03:04:12.788Z,4.30
2022-11-28T03:07:09.688Z,4.30
2022-11-28T03:09:56.893Z,4.67
2022-11-28T03:12:46.724Z,3.97
2022-11-28T03:15:16.833Z,4.47
2022-11-28T03:17:55.413Z,4.60
2022-11-28T03:20:49.033Z,4.53
2022-11-28T03:23:42.366Z,4.77
2022-11-28T03:26:36.742Z,4.47
2022-11-28T03:29:13.664Z,4.97
2022-11-28T03:31:45.545Z,4.90
2022-11-28T03:34:16.778Z,4.60
2022-11-28T03:36:54.089Z,5.10
2022-11-28T03:39:28.052Z,4.77
2022-11-28T03:41:59.685Z,5.40
2022-11-28T03:44:35.627Z,5.07
2022-11-28T03:47:05.093Z,5.20
2022-11-28T03:49:36.874Z,5.80
2022-11-28T03:52:11.469Z,5.17
2022-11-28T03:55:03.900Z,5.03
2022-11-28T03:57:39.061Z,5.33
2022-11-28T04:00:13.282Z,5.50
2022-11-28T04:03:14.509Z,5.50
2022-11-28T04:05:52.377Z,5.53
2022-11-28T04:08:25.998Z,5.27
2022-11-28T04:10:58.530Z,5.60
2022-11-28T04:13:32.655Z,5.13
2022-11-28T04:16:09.390Z,5.17
2022-11-28T04:19:01.566Z,5.27
2022-11-28T04:21:49.910Z,5.03
2022-11-28T04:24:23.890Z,5.10
2022-11-28T04:27:04.253Z,5.67
2022-11-28T04:29:54.239Z,4.83
2022-11-28T04:32:23.508Z,5.23
2022-11-28T04:34:55.000Z,5.20
2022-11-28T04:37:25.065Z,4.87
2022-11-28T04:39:53.877Z,5.10
2022-11-28T04:42:26.702Z,4.83
2022-11-28T04:45:08.864Z,4.67
2022-11-28T04:47:35.812Z,4.77
2022-11-28T04:50:03.053Z,5.20
2022-11-28T04:53:10.064Z,4.70
2022-11-28T04:55:46.380Z,4.57
2022-11-28T04:58:29.366Z,4.77
2022-11-28T05:00:58.977Z,4.87
2022-11-28T05:03:29.430Z,4.83
2022-11-28T05:05:56.249Z,4.33
2022-11-28T05:08:23.135Z,4.53
2022-11-28T05:10:50.245Z,4.20
2022-11-28T05:13:17.950Z,4.83
2022-11-28T05:15:44.898Z,4.80
2022-11-28T05:18:11.840Z,4.80
2022-11-28T05:20:39.143Z,5.00
2022-11-28T05:23:06.645Z,4.63
2022-11-28T05:25:33.808Z,4.83
2022-11-28T05:28:00.752Z,4.77
2022-11-28T05:30:27.593Z,4.70
2022-11-28T05:32:54.471Z,4.80
2022-11-28T05:35:21.289Z,4.27
2022-11-28T05:37:48.065Z,4.77
2022-11-28T05:40:14.925Z,7.30
2022-11-28T05:42:41.710Z,5.80
2022-11-28T05:45:09.372Z,5.70
2022-11-28T05:47:36.467Z,6.43
2022-11-28T05:50:04.175Z,6.17
2022-11-28T05:52:32.283Z,5.23
2022-11-28T05:55:00.285Z,5.17
2022-11-28T05:57:29.895Z,4.97
2022-11-28T05:59:57.439Z,5.07
2022-11-28T06:02:24.281Z,4.90
2022-11-28T06:04:51.374Z,5.07
2022-11-28T06:07:19.841Z,4.97
2022-11-28T06:09:46.808Z,5.20
2022-11-28T06:12:13.815Z,4.77
2022-11-28T06:14:40.705Z,5.03
2022-11-28T06:17:07.505Z,4.80
2022-11-28T06:19:34.325Z,5.30
2022-11-28T06:22:01.109Z,4.87
2022-11-28T06:24:27.955Z,4.83
2022-11-28T06:26:55.270Z,4.83
2022-11-28T06:29:22.617Z,4.90
2022-11-28T06:31:49.567Z,5.20
2022-11-28T06:34:16.635Z,4.80
2022-11-28T06:36:44.652Z,5.30
2022-11-28T06:39:15.329Z,5.20
2022-11-28T06:41:43.192Z,5.40
2022-11-28T06:44:15.277Z,5.43
2022-11-28T06:46:42.346Z,6.23
2022-11-28T06:49:12.941Z,6.40
2022-11-28T06:51:43.060Z,6.63
2022-11-28T06:54:09.803Z,6.23
2022-11-28T06:56:36.710Z,6.47
2022-11-28T06:59:03.917Z,6.10
2022-11-28T07:01:32.466Z,6.13
2022-11-28T07:03:59.281Z,6.93
2022-11-28T07:06:27.204Z,7.00
2022-11-28T07:08:55.379Z,6.73
2022-11-28T07:11:28.047Z,6.77
2022-11-28T07:13:56.000Z,7.20
2022-11-28T07:16:28.802Z,6.80
2022-11-28T07:18:56.880Z,6.60
2022-11-28T07:21:24.085Z,7.30
2022-11-28T07:23:51.387Z,7.40
2022-11-28T07:26:21.617Z,7.37
2022-11-28T07:28:50.327Z,7.30
2022-11-28T07:31:22.903Z,7.17
2022-11-28T07:33:51.247Z,7.60
2022-11-28T07:36:22.749Z,7.97
2022-11-28T07:38:55.390Z,7.97
2022-11-28T07:41:26.538Z,7.67
2022-11-28T07:43:56.422Z,7.83
2022-11-28T07:46:24.587Z,7.17
2022-11-28T07:48:52.317Z,7.90
2022-11-28T07:51:22.804Z,7.27
2022-11-28T07:53:49.864Z,7.50
2022-11-28T07:56:19.640Z,7.77
2022-11-28T07:58:47.751Z,7.40
2022-11-28T08:01:20.591Z,7.30
2022-11-28T08:03:48.097Z,7.53
2022-11-28T08:06:17.067Z,7.30
2022-11-28T08:08:47.038Z,7.27
2022-11-28T08:11:15.468Z,8.30
2022-11-28T08:13:43.223Z,7.77
2022-11-28T08:16:14.658Z,7.70
2022-11-28T08:18:42.055Z,7.93
2022-11-28T08:21:14.801Z,7.87
2022-11-28T08:23:42.272Z,7.57
2022-11-28T08:26:11.241Z,7.90
2022-11-28T08:28:38.081Z,8.20
2022-11-28T08:31:23.588Z,7.67
2022-11-28T08:33:52.325Z,7.93
2022-11-28T08:36:20.232Z,7.50
2022-11-28T08:39:03.316Z,6.73
2022-11-28T08:41:35.189Z,8.27
2022-11-28T08:44:01.993Z,8.50
2022-11-28T08:46:28.991Z,7.17
2022-11-28T08:48:55.955Z,7.73
2022-11-28T08:51:24.212Z,7.43
2022-11-28T08:53:57.873Z,8.00
2022-11-28T08:56:26.551Z,7.07
2022-11-28T08:58:53.474Z,7.13
2022-11-28T09:01:25.420Z,7.10
2022-11-28T09:03:53.262Z,7.70
2022-11-28T09:06:21.205Z,7.20
2022-11-28T09:08:49.243Z,6.97
2022-11-28T09:11:18.297Z,7.73
2022-11-28T09:13:45.884Z,7.83
2022-11-28T09:16:13.220Z,7.17
2022-11-28T09:18:40.144Z,7.43
2022-11-28T09:21:11.960Z,7.60
2022-11-28T09:23:41.107Z,7.87
2022-11-28T09:26:09.749Z,8.30
2022-11-28T09:28:37.015Z,8.50
2022-11-28T09:31:06.231Z,8.23
2022-11-28T09:33:33.347Z,7.97
2022-11-28T09:36:08.414Z,8.03
2022-11-28T09:38:35.809Z,8.00
2022-11-28T09:41:03.635Z,8.13
2022-11-28T09:43:38.196Z,8.23
2022-11-28T09:46:11.348Z,8.47
2022-11-28T09:48:44.456Z,7.87
2022-11-28T09:51:31.468Z,8.07
2022-11-28T09:54:11.173Z,7.53
2022-11-28T09:56:38.585Z,8.07
2022-11-28T09:59:19.200Z,7.83
2022-11-28T10:01:58.034Z,7.80
2022-11-28T10:04:24.961Z,8.17
2022-11-28T10:07:19.536Z,8.47
2022-11-28T10:09:52.738Z,7.83
2022-11-28T10:12:51.083Z,7.83
2022-11-28T10:15:44.692Z,9.03
2022-11-28T10:18:36.558Z,9.03
2022-11-28T10:21:14.606Z,8.43
2022-11-28T10:23:46.845Z,8.27
2022-11-28T10:26:23.976Z,8.90
2022-11-28T10:28:53.858Z,8.30
2022-11-28T10:31:41.779Z,8.33
2022-11-28T10:34:17.652Z,8.20
2022-11-28T10:37:12.029Z,8.53
2022-11-28T10:39:44.585Z,8.17
2022-11-28T10:42:36.771Z,8.60
2022-11-28T10:45:39.932Z,8.37
2022-11-28T10:51:17.465Z,8.33
2022-11-28T10:54:02.365Z,8.33
2022-11-28T10:56:40.623Z,7.53
2022-11-28T10:59:21.295Z,7.57
2022-11-28T11:01:50.948Z,8.37
2022-11-28T11:04:21.665Z,7.97
2022-11-28T11:07:29.882Z,8.20
2022-11-28T11:10:25.486Z,7.80
2022-11-28T11:12:53.637Z,7.80
2022-11-28T11:15:31.155Z,8.30
2022-11-28T11:18:02.757Z,8.10
2022-11-28T11:20:36.912Z,7.20
2022-11-28T11:23:22.802Z,7.87
2022-11-28T11:25:56.650Z,7.57
2022-11-28T11:28:43.293Z,8.13
2022-11-28T11:31:42.832Z,7.77
2022-11-28T11:34:18.792Z,8.03
2022-11-28T11:36:46.283Z,7.60
2022-11-28T11:39:13.301Z,8.47
2022-11-28T11:41:42.885Z,7.47
2022-11-28T11:44:15.846Z,8.27
2022-11-28T11:47:02.823Z,7.60
2022-11-28T11:49:49.891Z,8.53
2022-11-28T11:52:25.457Z,7.73
2022-11-28T11:54:58.188Z,8.07
2022-11-28T11:57:34.224Z,8.17
2022-11-28T12:00:20.903Z,8.00
2022-11-28T12:02:51.972Z,8.00
2022-11-28T12:05:52.344Z,7.93
2022-11-28T12:08:22.586Z,8.03
2022-11-28T12:10:56.462Z,7.63
2022-11-28T12:13:24.765Z,7.93
2022-11-28T12:16:03.978Z,8.10
2022-11-28T12:19:04.728Z,8.00
2022-11-28T12:22:03.090Z,8.23
2022-11-28T12:24:33.084Z,8.07
2022-11-28T12:27:00.118Z,8.50
2022-11-28T12:29:54.685Z,7.53
2022-11-28T12:32:56.947Z,8.60
2022-11-28T12:35:47.301Z,8.20
2022-11-28T12:38:49.265Z,8.33
2022-11-28T12:41:37.512Z,8.90
2022-11-28T12:44:13.227Z,8.93
2022-11-28T12:46:54.967Z,8.17
2022-11-28T12:49:40.283Z,9.13
2022-11-28T12:52:24.718Z,8.73
2022-11-28T12:55:11.832Z,8.80
2022-11-28T12:57:55.249Z,9.23
2022-11-28T13:00:26.296Z,9.20
2022-11-28T13:03:34.538Z,9.17
2022-11-28T13:06:13.092Z,8.80
2022-11-28T13:09:03.055Z,8.90
2022-11-28T13:11:54.291Z,8.40
2022-11-28T13:14:33.716Z,9.17
2022-11-28T13:17:35.975Z,9.37
2022-11-28T13:20:30.699Z,9.43
2022-11-28T13:23:17.368Z,9.10
2022-11-28T13:25:57.154Z,9.10
2022-11-28T13:28:24.067Z,9.93
2022-11-28T13:30:55.363Z,9.47
2022-11-28T13:33:52.873Z,8.73
2022-11-28T13:39:23.290Z,8.30
2022-11-28T13:42:28.435Z,8.70
2022-11-28T13:45:23.778Z,8.63
2022-11-28T13:47:53.519Z,9.13
2022-11-28T13:50:23.468Z,9.10
2022-11-28T13:53:01.943Z,9.20
2022-11-28T13:55:49.936Z,9.90
2022-11-28T13:58:28.431Z,9.73
2022-11-28T14:01:14.450Z,9.63
2022-11-28T14:04:02.542Z,10.43
2022-11-28T14:06:44.754Z,9.33
2022-11-28T14:09:11.793Z,9.53
2022-11-28T14:12:02.652Z,9.63
2022-11-28T14:14:51.636Z,9.63
2022-11-28T14:17:33.009Z,9.40
2022-11-28T14:20:09.937Z,9.63
2022-11-28T14:23:08.344Z,10.43
2022-11-28T14:25:43.321Z,10.83
2022-11-28T14:28:38.278Z,10.53
2022-11-28T14:31:11.390Z,10.60
2022-11-28T14:33:42.624Z,11.33
2022-11-28T14:36:23.014Z,10.60
2022-11-28T14:39:08.425Z,10.63
2022-11-28T14:42:04.755Z,10.33
2022-11-28T14:44:50.958Z,9.63
2022-11-28T14:47:35.103Z,10.33
2022-11-28T14:50:05.897Z,10.43
2022-11-28T14:52:39.882Z,11.00
2022-11-28T14:55:10.285Z,10.10
2022-11-28T14:58:03.690Z,10.27
2022-11-28T15:01:02.454Z,9.77
2022-11-28T15:03:57.918Z,10.53
2022-11-28T15:06:38.391Z,10.80
2022-11-28T15:09:13.517Z,10.00
2022-11-28T15:11:46.012Z,9.67
2022-11-28T15:14:23.699Z,10.93
2022-11-28T15:16:58.182Z,10.53
2022-11-28T15:19:38.440Z,9.93
2022-11-28T15:22:05.422Z,10.87
2022-11-28T15:24:38.803Z,11.80
2022-11-28T15:27:08.550Z,11.90
2022-11-28T15:29:36.512Z,11.87
2022-11-28T15:32:04.633Z,11.37
2022-11-28T15:34:36.117Z,11.80
2022-11-28T15:37:15.107Z,12.60
2022-11-28T15:39:45.629Z,12.57
2022-11-28T15:42:23.998Z,12.80
2022-11-28T15:45:03.813Z,12.10
2022-11-28T15:47:30.968Z,11.90
2022-11-28T15:50:19.507Z,12.53
2022-11-28T15:53:04.670Z,12.90
2022-11-28T15:55:34.838Z,13.40
2022-11-28T15:58:28.703Z,13.70
2022-11-28T16:01:08.329Z,13.17
2022-11-28T16:03:43.469Z,13.57
2022-11-28T16:06:10.736Z,11.73
2022-11-28T16:08:41.371Z,12.17
2022-11-28T16:11:10.493Z,12.17
2022-11-28T16:13:40.714Z,12.67
2022-11-28T16:16:16.158Z,13.17
2022-11-28T16:19:00.719Z,13.13
2022-11-28T16:21:37.601Z,12.67
2022-11-28T16:24:27.755Z,12.83
2022-11-28T16:27:00.482Z,12.40
2022-11-28T16:29:34.679Z,13.10
2022-11-28T16:32:23.087Z,13.00
2022-11-28T16:34:55.276Z,11.53
2022-11-28T16:37:28.178Z,12.87
2022-11-28T16:40:01.216Z,13.47
2022-11-28T16:42:28.592Z,13.03
2022-11-28T16:44:55.704Z,12.90
2022-11-28T16:47:29.601Z,12.67
2022-11-28T16:50:04.994Z,13.50
2022-11-28T16:52:32.257Z,13.70
2022-11-28T16:54:59.477Z,13.50
2022-11-28T16:57:45.853Z,13.23
2022-11-28T17:00:13.365Z,13.70
2022-11-28T17:02:40.396Z,13.63
2022-11-28T17:05:07.627Z,13.67
2022-11-28T17:07:34.748Z,13.40
2022-11-28T17:10:01.796Z,13.57
2022-11-28T17:12:38.931Z,13.37
2022-11-28T17:15:10.530Z,13.90
2022-11-28T17:17:37.434Z,14.70
2022-11-28T17:20:04.826Z,14.20
2022-11-28T17:22:46.017Z,13.80
2022-11-28T17:25:18.138Z,13.03
2022-11-28T17:27:46.065Z,13.67
2022-11-28T17:30:18.242Z,14.30
2022-11-28T17:32:47.260Z,12.83
2022-11-28T17:35:21.528Z,13.23
2022-11-28T17:37:48.616Z,13.33
2022-11-28T17:40:33.761Z,13.87
2022-11-28T17:43:01.633Z,13.13
2022-11-28T17:45:31.915Z,13.20
2022-11-28T17:47:58.927Z,13.23
2022-11-28T17:50:26.718Z,14.30
2022-11-28T17:52:54.433Z,14.13
2022-11-28T17:55:21.366Z,13.90
2022-11-28T17:57:49.097Z,14.90
2022-11-28T18:00:17.138Z,14.03
2022-11-28T18:02:43.967Z,14.20
2022-11-28T18:05:10.936Z,14.80
2022-11-28T18:07:37.810Z,14.03
2022-11-28T18:10:05.466Z,15.43
2022-11-28T18:12:32.565Z,15.07
2022-11-28T18:15:00.979Z,15.60
2022-11-28T18:17:28.166Z,16.13
2022-11-28T18:19:57.703Z,14.67
2022-11-28T18:22:25.077Z,14.40
2022-11-28T18:24:52.056Z,15.80
2022-11-28T18:27:19.015Z,15.40
2022-11-28T18:29:46.324Z,15.23
2022-11-28T18:32:13.786Z,15.93
2022-11-28T18:34:40.817Z,16.03
2022-11-28T18:37:08.424Z,15.87
2022-11-28T18:39:35.437Z,16.43
2022-11-28T18:42:02.348Z,15.90
2022-11-28T18:44:29.236Z,18.00
2022-11-28T18:46:56.203Z,17.90
2022-11-28T18:49:23.343Z,18.40
2022-11-28T18:51:50.716Z,17.33
2022-11-28T18:54:21.078Z,18.07
2022-11-28T18:56:49.687Z,16.70
2022-11-28T18:59:16.767Z,17.97
2022-11-28T19:01:45.028Z,18.07
2022-11-28T19:04:15.526Z,19.30
2022-11-28T19:06:44.732Z,17.40
2022-11-28T19:09:14.748Z,19.03
2022-11-28T19:11:42.461Z,18.87
2022-11-28T19:14:18.431Z,19.50
2022-11-28T19:16:47.048Z,18.13
2022-11-28T19:19:14.506Z,20.03
2022-11-28T19:21:41.728Z,19.17
2022-11-28T19:24:09.072Z,18.53
2022-11-28T19:26:37.427Z,18.53
2022-11-28T19:29:05.845Z,20.53
2022-11-28T19:31:34.885Z,19.40
2022-11-28T19:34:11.507Z,19.80
2022-11-28T19:36:41.674Z,19.60
2022-11-28T19:39:14.780Z,19.07
2022-11-28T19:41:41.840Z,18.60
2022-11-28T19:44:11.386Z,18.17
2022-11-28T19:46:38.877Z,17.27
2022-11-28T19:49:07.141Z,17.90
2022-11-28T19:51:35.377Z,16.70
2022-11-28T19:54:03.904Z,16.90
2022-11-28T19:56:31.588Z,16.27
2022-11-28T19:58:59.227Z,16.20
2022-11-28T20:01:26.233Z,16.17
2022-11-28T20:03:53.527Z,15.40
2022-11-28T20:06:22.597Z,15.50
2022-11-28T20:08:50.754Z,15.77
2022-11-28T20:11:22.143Z,14.47
2022-11-28T20:13:50.207Z,15.97
2022-11-28T20:16:17.898Z,15.07
2022-11-28T20:18:45.404Z,15.37
2022-11-28T20:21:15.144Z,15.80
2022-11-28T20:23:44.337Z,15.77
2022-11-28T20:26:12.237Z,15.47
2022-11-28T20:28:40.584Z,14.87
2022-11-28T20:31:26.520Z,15.03
2022-11-28T20:33:54.620Z,15.60
2022-11-28T20:36:26.200Z,14.93
2022-11-28T20:38:54.064Z,16.00
2022-11-28T20:41:23.376Z,15.37
2022-11-28T20:43:50.584Z,15.93
2022-11-28T20:46:28.593Z,15.53
2022-11-28T20:48:58.022Z,15.97
2022-11-28T20:51:27.164Z,15.90
2022-11-28T20:53:56.151Z,16.07
2022-11-28T20:56:25.819Z,15.97
2022-11-28T20:58:52.907Z,16.93
2022-11-28T21:01:25.625Z,17.00
2022-11-28T21:03:52.858Z,16.10
2022-11-28T21:06:20.330Z,16.50
2022-11-28T21:08:47.528Z,17.33
2022-11-28T21:11:36.364Z,18.13
2022-11-28T21:14:05.679Z,17.90
2022-11-28T21:16:33.862Z,18.20
2022-11-28T21:19:09.042Z,16.87
2022-11-28T21:21:38.516Z,17.90
2022-11-28T21:24:09.721Z,18.70
2022-11-28T21:26:40.978Z,18.70
2022-11-28T21:29:10.831Z,19.93
2022-11-28T21:31:42.279Z,19.53
2022-11-28T21:34:14.382Z,19.27
2022-11-28T21:36:42.056Z,19.80
2022-11-28T21:39:16.055Z,19.50
2022-11-28T21:41:42.930Z,19.10
2022-11-28T21:44:10.085Z,20.63
2022-11-28T21:46:36.850Z,19.73
2022-11-28T21:49:03.987Z,20.47
2022-11-28T21:51:30.771Z,20.10
2022-11-28T21:53:58.008Z,19.87
2022-11-28T21:56:25.821Z,20.47
2022-11-28T21:58:52.993Z,21.73
2022-11-28T22:01:21.353Z,19.57
2022-11-28T22:03:49.223Z,20.73
2022-11-28T22:06:26.536Z,21.10
2022-11-28T22:08:54.254Z,21.53
2022-11-28T22:11:21.720Z,21.63
2022-11-28T22:13:49.383Z,19.80
2022-11-28T22:16:24.648Z,18.77
2022-11-28T22:18:54.172Z,19.17
2022-11-28T22:21:50.491Z,19.70
2022-11-28T22:24:08.643Z,20.27
2022-11-28T22:26:35.707Z,19.30
2022-11-28T22:29:04.001Z,19.67
2022-11-28T22:31:31.350Z,18.53
2022-11-28T22:33:58.350Z,19.50
2022-11-28T22:36:25.305Z,19.77
2022-11-28T22:38:56.734Z,24.47
2022-11-28T22:41:28.782Z,24.00
2022-11-28T22:43:59.505Z,23.93
2022-11-28T22:46:27.200Z,24.00
2022-11-28T22:48:54.082Z,24.23
2022-11-28T22:51:24.222Z,23.00
2022-11-28T22:53:55.770Z,24.97
2022-11-28T22:56:23.253Z,23.43
2022-11-28T22:58:50.593Z,25.23
2022-11-28T23:01:20.590Z,25.17
2022-11-28T23:03:47.993Z,24.00
2022-11-28T23:06:20.445Z,24.10
2022-11-28T23:08:47.629Z,24.00
2022-11-28T23:11:20.539Z,24.30
2022-11-28T23:13:48.318Z,24.23
2022-11-28T23:16:19.482Z,23.33
2022-11-28T23:18:49.330Z,23.63
2022-11-28T23:21:17.418Z,23.43
2022-11-28T23:23:45.936Z,23.70
2022-11-28T23:26:16.014Z,25.57
2022-11-28T23:28:43.696Z,24.33
2022-11-28T23:31:17.324Z,24.10
2022-11-28T23:33:44.668Z,25.17
2022-11-28T23:36:25.413Z,24.67
2022-11-28T23:38:59.007Z,24.37
2022-11-28T23:41:26.094Z,25.47
2022-11-28T23:43:53.152Z,24.33
2022-11-28T23:46:21.408Z,22.70
2022-11-28T23:48:48.989Z,22.37
2022-11-28T23:51:17.232Z,22.17
2022-11-28T23:53:45.053Z,22.43
2022-11-28T23:56:18.151Z,22.17
2022-11-28T23:58:45.433Z,20.83
